Weather observations for the past three days for
Chickasha, Chickasha Municipal Airport
Imperial (Metric)
Date Time (cdt) Wind (mph) Vis. (mi.) Weather Sky Cond. Temperature (ºF) Relative Humidity Wind Chill (°F) Heat Index (°F) Pressure Precipitation (in)
Air Dwpt 6 hour altimeter (in) sea level (mb) 1 hr 3 hr 6 hr
Max. Min.
05 12:15 N 23 G 30 10.00 Overcast and Breezy OVC016 62.6 51.8 68% 29.73 0.0
05 11:55 N 22 G 28 10.00 Overcast and Breezy BKN014 OVC022 64.4 53.6 68% 29.72 0.0
05 11:35 N 26 G 30 7.00 Overcast and Windy BKN014 OVC020 64.4 53.6 68% 29.7 0.0
05 11:15 N 26 G 36 10.00 Overcast and Windy OVC014 64.4 53.6 68% 29.69 0.0
05 10:35 N 25 G 35 10.00 Mostly Cloudy and Breezy BKN016 64.4 55.4 73% 29.66 0.0
05 10:15 N 29 G 35 10.00 Partly Cloudy and Windy SCT016 71.6 60.8 69% 29.64 0.0
05 09:55 NW 9 10.00 Fair CLR 73.4 59 61% 29.62 0.0
05 09:35 NW 8 10.00 Fair CLR 73.4 60.8 65% 29.61 0.0
05 09:15 N 12 10.00 Fair CLR 73.4 60.8 65% 29.6 0.0
05 08:55 W 8 10.00 Fair CLR 73.4 60.8 65% 29.59 0.0
05 08:35 SW 6 10.00 Fair CLR 71.6 60.8 69% 29.59 0.0
05 08:15 SW 12 10.00 Fair CLR 71.6 60.8 69% 29.58 0.0
05 07:55 SW 12 10.00 Fair CLR 69.8 60.8 73% 29.57 0.0
05 07:35 SW 10 10.00 Fair CLR 69.8 60.8 73% 29.56 0.0
05 07:15 S 14 10.00 Fair CLR 69.8 60.8 73% 29.56 0.0
05 06:55 SW 14 G 20 10.00 Fair CLR 69.8 60.8 73% 29.55 0.0
05 06:35 SW 14 G 17 10.00 Fair CLR 68 60.8 78% 29.55 0.0
05 06:15 SW 10 G 21 10.00 Fair CLR 69.8 60.8 73% 29.54 0.0
05 05:55 S 16 G 23 10.00 Fair CLR 69.8 60.8 73% 29.53 0.0
05 05:35 S 15 G 23 10.00 Fair CLR 69.8 60.8 73% 29.53 0.0
05 05:15 S 17 G 25 10.00 Fair CLR 69.8 62.6 78% 29.53 0.0
05 04:55 S 17 G 24 10.00 Fair CLR 69.8 62.6 78% 29.53 0.0
05 04:35 S 15 G 23 10.00 Fair CLR 69.8 62.6 78% 29.52 0.0
05 04:15 S 18 G 23 10.00 Fair CLR 69.8 62.6 78% 29.53 0.0
05 03:55 S 14 10.00 Fair CLR 69.8 62.6 78% 29.54 0.0
05 03:35 S 18 G 25 10.00 Fair CLR 69.8 62.6 78% 29.54 0.0
05 03:15 S 17 G 28 10.00 Fair CLR 69.8 62.6 78% 29.54 0.0
05 02:55 S 18 G 25 10.00 Fair CLR 71.6 62.6 73% 29.54 0.0
05 02:35 S 21 G 26 10.00 Fair and Breezy CLR 71.6 62.6 73% 29.55 0.0
05 02:15 S 17 G 24 10.00 Fair CLR 71.6 62.6 73% 29.55 0.0
05 01:55 S 16 G 26 10.00 Fair CLR 71.6 62.6 73% 29.56 0.0
05 01:35 S 15 G 23 10.00 Fair CLR 71.6 62.6 73% 29.57 0.0
05 01:15 S 17 G 24 10.00 Fair CLR 71.6 62.6 73% 29.58 0.0
05 00:55 S 15 G 22 10.00 Fair CLR 71.6 62.6 73% 29.58 0.0
05 00:35 S 15 G 20 10.00 Fair CLR 71.6 62.6 73% 29.59 0.0
05 00:15 S 16 G 22 10.00 Fair CLR 71.6 62.6 73% 29.59 0.0
04 23:55 S 16 G 28 10.00 Fair CLR 73.4 62.6 69% 29.59 0.0
04 23:35 S 20 G 28 10.00 Fair CLR 73.4 62.6 69% 29.59 0.0
04 23:15 S 21 G 28 10.00 Fair and Breezy CLR 73.4 62.6 69% 29.59 0.0
04 22:55 S 20 G 26 10.00 Fair CLR 73.4 62.6 69% 29.6 0.0
04 22:35 S 18 G 29 10.00 Fair CLR 75.2 62.6 65% 77 29.6 0.0
04 22:15 S 17 G 26 10.00 Fair CLR 75.2 62.6 65% 77 29.59 0.0
04 21:55 S 18 G 29 10.00 Fair CLR 75.2 62.6 65% 77 29.59 0.0
04 21:35 S 20 G 24 10.00 Fair CLR 75.2 62.6 65% 77 29.59 0.0
04 21:15 S 17 G 25 10.00 Fair CLR 77 62.6 61% 79 29.58 0.0
04 20:55 S 21 G 25 10.00 Fair and Breezy CLR 77 62.6 61% 79 29.59 0.0
04 20:35 S 15 10.00 Fair CLR 77 62.6 61% 79 29.58 0.0
04 20:15 S 17 10.00 Fair CLR 78.8 62.6 58% 80 29.58 0.0
04 19:55 S 17 10.00 Partly Cloudy SCT120 78.8 62.6 58% 80 29.58 0.0
04 19:35 S 20 G 29 10.00 Fair CLR 80.6 62.6 54% 82 29.59 0.0
04 19:15 S 22 G 29 10.00 Fair and Breezy CLR 82.4 60.8 48% 83 29.59 0.0
04 18:55 S 23 G 29 10.00 Fair and Breezy CLR 82.4 60.8 48% 83 29.6 0.0
04 18:35 S 22 G 29 10.00 Fair and Breezy CLR 84.2 60.8 45% 84 29.6 0.0
04 18:15 S 22 G 29 10.00 Fair and Breezy CLR 84.2 60.8 45% 84 29.6 0.0
04 17:55 S 23 G 29 10.00 Fair and Breezy CLR 86 60.8 43% 86 29.61 0.0
04 17:35 S 21 G 28 10.00 Fair and Breezy CLR 86 60.8 43% 86 29.62 0.0
04 17:15 S 20 G 26 10.00 Fair CLR 86 60.8 43% 86 29.62 0.0
04 16:55 S 16 G 28 10.00 Fair CLR 86 59 40% 85 29.63 0.0
04 16:35 S 23 G 29 10.00 Fair and Breezy CLR 86 59 40% 85 29.63 0.0
04 16:15 S 20 G 26 10.00 Fair CLR 84.2 59 43% 84 29.65 0.0
04 15:55 S 21 G 29 10.00 Fair and Breezy CLR 84.2 59 43% 84 29.67 0.0
04 15:35 S 20 G 25 10.00 NULL NULL 84.2 59 43% 84 29.68 0.0
Date Time (cdt) Wind (mph) Vis. (mi.) Weather Sky Cond. Air Dwpt Max. Min. Relative Humidity Wind Chill (°F) Heat Index (°F) altimeter (in) sea level (mb) 1 hr 3 hr 6 hr
6 hour
Temperature (ºF) Pressure Precipitation (in)